Time,TemperatureF,DewpointF,PressureIn,WindDirection,WindDirectionDegrees,WindSpeedMPH,WindSpeedGustMPH,Humidity,HourlyPrecipIn,Conditions,Clouds,dailyrainin,SoftwareType,DateUTC
2013-04-21 09:33:00,52.9,24.6,29.21,North,349,0.7,2.0,33,0.00,,,0.00,WSDL version 420,2013-04-21 13:33:00,
2013-04-21 09:37:00,53.2,24.2,29.21,NNE,30,3.8,4.9,31,0.00,,,0.00,WSDL version 420,2013-04-21 13:37:00,
2013-04-21 09:39:00,53.2,24.0,29.21,North,360,1.8,4.9,32,0.00,,,0.00,WSDL version 420,2013-04-21 13:39:00,
2013-04-21 09:41:00,53.4,23.7,29.21,North,360,2.3,4.9,30,0.00,,,0.00,WSDL version 420,2013-04-21 13:41:00,
2013-04-21 09:43:00,53.6,23.5,29.21,NNE,23,3.1,4.9,31,0.00,,,0.00,WSDL version 420,2013-04-21 13:43:00,
2013-04-21 09:47:00,53.9,24.0,29.21,NNE,15,1.5,3.6,31,0.00,,,0.00,WSDL version 420,2013-04-21 13:47:00,
2013-04-21 09:49:00,54.1,24.2,29.21,North,360,2.5,3.6,30,0.00,,,0.00,WSDL version 420,2013-04-21 13:49:00,
2013-04-21 09:53:00,54.4,23.6,29.21,NNE,15,2.5,4.9,30,0.00,,,0.00,WSDL version 420,2013-04-21 13:53:00,
2013-04-21 09:55:00,54.4,23.2,29.21,North,360,4.9,4.9,28,0.00,,,0.00,WSDL version 420,2013-04-21 13:55:00,
2013-04-21 09:57:00,54.3,22.5,29.21,North,11,5.9,8.5,28,0.00,,,0.00,WSDL version 420,2013-04-21 13:57:00,
2013-04-21 09:59:00,54.2,21.6,29.21,North,360,4.1,8.5,28,0.00,,,0.00,WSDL version 420,2013-04-21 13:59:00,
2013-04-21 10:01:00,54.1,21.8,29.21,NNE,23,3.4,8.5,28,0.00,,,0.00,WSDL version 420,2013-04-21 14:01:00,
2013-04-21 10:03:00,54.2,22.0,29.21,NNW,332,2.0,8.5,29,0.00,,,0.00,WSDL version 420,2013-04-21 14:03:00,
2013-04-21 10:07:00,54.5,22.7,29.21,North,360,3.7,6.5,28,0.00,,,0.00,WSDL version 420,2013-04-21 14:07:00,
2013-04-21 10:12:00,54.2,21.6,29.21,North,360,4.3,10.1,28,0.00,,,0.00,WSDL version 420,2013-04-21 14:12:00,
2013-04-21 10:16:00,54.5,22.1,29.21,WSW,240,1.4,10.1,28,0.00,,,0.00,WSDL version 420,2013-04-21 14:16:00,
2013-04-21 10:18:00,54.7,22.4,29.21,SSW,203,2.7,6.5,28,0.00,,,0.00,WSDL version 420,2013-04-21 14:18:00,
2013-04-21 10:22:00,55.1,22.8,29.21,North,360,1.2,4.7,28,0.00,,,0.00,WSDL version 420,2013-04-21 14:22:00,
2013-04-21 10:26:00,55.5,22.9,29.21,NNW,338,1.0,4.7,28,0.00,,,0.00,WSDL version 420,2013-04-21 14:26:00,
2013-04-21 10:28:00,55.7,23.3,29.21,West,281,0.9,4.7,29,0.00,,,0.00,WSDL version 420,2013-04-21 14:28:00,
2013-04-21 10:30:00,55.9,23.6,29.21,NE,34,1.1,4.7,29,0.00,,,0.00,WSDL version 420,2013-04-21 14:30:00,
2013-04-21 10:34:00,56.2,24.4,29.21,NNE,23,2.2,2.7,29,0.00,,,0.00,WSDL version 420,2013-04-21 14:34:00,
2013-04-21 10:37:00,56.3,24.4,29.21,ESE,113,1.6,2.7,29,0.00,,,0.00,WSDL version 420,2013-04-21 14:37:00,
2013-04-21 10:39:00,56.4,24.6,29.21,North,360,0.0,2.7,29,0.00,,,0.00,WSDL version 420,2013-04-21 14:39:00,
2013-04-21 10:40:00,56.7,24.8,29.21,NW,315,1.6,2.7,29,0.00,,,0.00,WSDL version 420,2013-04-21 14:40:00,
2013-04-21 10:43:00,56.9,24.8,29.21,SW,219,1.4,2.7,28,0.00,,,0.00,WSDL version 420,2013-04-21 14:43:00,
2013-04-21 10:47:00,56.9,24.2,29.21,East,79,1.3,2.5,28,0.00,,,0.00,WSDL version 420,2013-04-21 14:47:00,
2013-04-21 10:51:00,56.9,24.6,29.21,NE,53,1.2,3.1,29,0.00,,,0.00,WSDL version 420,2013-04-21 14:51:00,
2013-04-21 10:53:00,57.1,25.0,29.21,West,276,1.5,3.6,29,0.00,,,0.00,WSDL version 420,2013-04-21 14:53:00,
2013-04-21 10:57:00,57.4,24.5,29.21,NNE,23,2.9,3.6,28,0.00,,,0.00,WSDL version 420,2013-04-21 14:57:00,
2013-04-21 10:59:00,57.4,24.4,29.21,WNW,293,2.2,3.6,28,0.00,,,0.00,WSDL version 420,2013-04-21 14:59:00,
2013-04-21 11:01:00,57.4,24.6,29.21,North,360,1.6,3.6,28,0.00,,,0.00,WSDL version 420,2013-04-21 15:01:00,
2013-04-21 11:04:00,57.7,24.5,29.21,NNE,23,2.2,3.4,27,0.00,,,0.00,WSDL version 420,2013-04-21 15:04:00,
2013-04-21 11:07:00,57.7,24.1,29.21,NW,315,2.0,3.4,27,0.00,,,0.00,WSDL version 420,2013-04-21 15:07:00,
2013-04-21 11:08:00,57.6,24.2,29.21,North,360,1.1,3.4,28,0.00,,,0.00,WSDL version 420,2013-04-21 15:08:00,
2013-04-21 11:11:00,57.7,24.4,29.21,NW,308,2.4,3.4,27,0.00,,,0.00,WSDL version 420,2013-04-21 15:11:00,
2013-04-21 11:13:00,57.7,24.3,29.21,North,-999,-999.0,-999.0,27,0.00,,,0.00,WSDL version 420,2013-04-21 15:13:00,
2013-04-21 11:17:00,58.0,24.6,29.21,NW,315,1.3,2.9,28,0.00,,,0.00,WSDL version 420,2013-04-21 15:17:00,
2013-04-21 11:19:00,58.2,25.1,29.21,WNW,293,1.2,2.9,28,0.00,,,0.00,WSDL version 420,2013-04-21 15:19:00,
2013-04-21 11:22:00,58.6,25.5,29.21,North,360,1.6,2.9,27,0.00,,,0.00,WSDL version 420,2013-04-21 15:22:00,
2013-04-21 11:24:00,59.0,25.4,29.21,NE,45,1.6,2.9,27,0.00,,,0.00,WSDL version 420,2013-04-21 15:24:00,
2013-04-21 11:28:00,59.4,25.4,29.21,NNW,338,2.1,3.1,27,0.00,,,0.00,WSDL version 420,2013-04-21 15:28:00,
2013-04-21 11:31:00,59.5,25.5,29.21,NW,315,3.1,3.1,27,0.00,,,0.00,WSDL version 420,2013-04-21 15:31:00,
2013-04-21 11:33:00,59.4,25.5,29.21,North,-999,-999.0,-999.0,27,0.00,,,0.00,WSDL version 420,2013-04-21 15:33:00,
2013-04-21 11:37:00,59.5,25.3,29.21,North,360,0.9,3.1,27,0.00,,,0.00,WSDL version 420,2013-04-21 15:37:00,
2013-04-21 11:39:00,59.5,25.2,29.21,North,0,0.0,2.9,26,0.00,,,0.00,WSDL version 420,2013-04-21 15:39:00,
2013-04-21 11:41:00,59.7,24.9,29.21,North,360,2.5,2.9,26,0.00,,,0.00,WSDL version 420,2013-04-21 15:41:00,
2013-04-21 11:45:00,59.8,24.9,29.21,WNW,293,1.6,4.7,26,0.00,,,0.00,WSDL version 420,2013-04-21 15:45:00,
2013-04-21 11:48:00,60.1,25.3,29.21,North,0,0.0,4.7,26,0.00,,,0.00,WSDL version 420,2013-04-21 15:48:00,
2013-04-21 11:50:00,60.2,25.2,29.21,North,360,3.8,4.7,26,0.00,,,0.00,WSDL version 420,2013-04-21 15:50:00,
2013-04-21 11:52:00,60.1,25.2,29.21,North,-999,-999.0,-999.0,26,0.00,,,0.00,WSDL version 420,2013-04-21 15:52:00,
2013-04-21 11:54:00,60.1,25.1,29.21,North,-999,-999.0,-999.0,26,0.00,,,0.00,WSDL version 420,2013-04-21 15:54:00,
2013-04-21 11:56:00,60.4,25.3,29.21,North,353,1.1,2.2,26,0.00,,,0.00,WSDL version 420,2013-04-21 15:56:00,
2013-04-21 12:11:00,60.4,25.4,29.21,North,360,2.0,5.6,26,0.00,,,0.00,WSDL version 420,2013-04-21 16:11:00,
2013-04-21 12:13:00,60.4,25.4,29.18,West,278,2.8,4.9,26,0.00,,,0.00,WSDL version 420,2013-04-21 16:13:00,
2013-04-21 12:17:00,61.0,25.4,29.18,North,-999,-999.0,-999.0,26,0.00,,,0.00,WSDL version 420,2013-04-21 16:17:00,
2013-04-21 12:19:00,61.3,25.8,29.18,West,281,2.1,4.7,26,0.00,,,0.00,WSDL version 420,2013-04-21 16:19:00,
2013-04-21 12:25:00,61.6,25.5,29.18,North,8,4.0,6.3,25,0.00,,,0.00,WSDL version 420,2013-04-21 16:25:00,
2013-04-21 12:27:00,61.6,25.4,29.18,North,-999,-999.0,-999.0,25,0.00,,,0.00,WSDL version 420,2013-04-21 16:27:00,
2013-04-21 12:29:00,61.7,26.0,29.18,North,-999,-999.0,-999.0,26,0.00,,,0.00,WSDL version 420,2013-04-21 16:29:00,
2013-04-21 12:31:00,62.0,26.6,29.18,East,90,2.5,6.3,26,0.00,,,0.00,WSDL version 420,2013-04-21 16:31:00,
2013-04-21 12:35:00,62.8,26.8,29.18,NW,315,1.1,3.1,26,0.00,,,0.00,WSDL version 420,2013-04-21 16:35:00,
2013-04-21 12:37:00,63.1,26.9,29.18,NE,45,2.7,3.1,25,0.00,,,0.00,WSDL version 420,2013-04-21 16:37:00,
2013-04-21 12:39:00,62.9,26.7,29.18,North,11,2.0,6.5,25,0.00,,,0.00,WSDL version 420,2013-04-21 16:39:00,
2013-04-21 12:41:00,62.5,26.3,29.18,North,360,3.5,6.5,25,0.00,,,0.00,WSDL version 420,2013-04-21 16:41:00,
2013-04-21 12:45:00,62.1,25.9,29.18,North,-999,-999.0,-999.0,25,0.00,,,0.00,WSDL version 420,2013-04-21 16:45:00,
2013-04-21 12:47:00,62.5,26.2,29.18,North,360,1.3,6.5,25,0.00,,,0.00,WSDL version 420,2013-04-21 16:47:00,
2013-04-21 12:53:00,62.6,26.3,29.18,NNE,23,2.7,3.6,25,0.00,,,0.00,WSDL version 420,2013-04-21 16:53:00,
2013-04-21 12:55:00,62.5,26.2,29.18,North,-999,-999.0,-999.0,25,0.00,,,0.00,WSDL version 420,2013-04-21 16:55:00,
2013-04-21 12:57:00,62.3,26.1,29.18,North,360,3.8,5.8,25,0.00,,,0.00,WSDL version 420,2013-04-21 16:57:00,
2013-04-21 12:59:00,62.1,25.9,29.18,North,360,3.6,5.8,25,0.00,,,0.00,WSDL version 420,2013-04-21 16:59:00,
2013-04-21 13:01:00,62.2,26.0,29.18,NNW,345,1.6,5.8,25,0.00,,,0.00,WSDL version 420,2013-04-21 17:01:00,
2013-04-21 13:05:00,62.8,26.5,29.18,North,360,3.4,5.8,25,0.00,,,0.00,WSDL version 420,2013-04-21 17:05:00,
2013-04-21 13:07:00,62.9,26.6,29.18,ENE,68,2.1,3.8,25,0.00,,,0.00,WSDL version 420,2013-04-21 17:07:00,
2013-04-21 13:09:00,63.0,26.6,29.18,NW,315,2.2,3.8,25,0.00,,,0.00,WSDL version 420,2013-04-21 17:09:00,
2013-04-21 13:11:00,63.3,26.9,29.18,NNE,23,1.8,3.8,25,0.00,,,0.00,WSDL version 420,2013-04-21 17:11:00,
2013-04-21 13:15:00,64.0,27.5,29.18,NNE,23,2.5,3.1,25,0.00,,,0.00,WSDL version 420,2013-04-21 17:15:00,
2013-04-21 13:17:00,64.1,27.6,29.18,NNE,23,3.4,4.5,25,0.00,,,0.00,WSDL version 420,2013-04-21 17:17:00,
2013-04-21 13:21:00,63.9,27.2,29.18,NNE,15,3.4,4.5,24,0.00,,,0.00,WSDL version 420,2013-04-21 17:21:00,
2013-04-21 13:25:00,63.1,26.1,29.18,North,360,3.8,7.8,25,0.00,,,0.00,WSDL version 420,2013-04-21 17:25:00,
2013-04-21 13:27:00,63.2,26.5,29.18,North,-999,-999.0,-999.0,25,0.00,,,0.00,WSDL version 420,2013-04-21 17:27:00,
2013-04-21 13:29:00,63.4,26.8,29.18,NNE,23,3.5,7.8,24,0.00,,,0.00,WSDL version 420,2013-04-21 17:29:00,
2013-04-21 13:33:00,62.9,25.8,29.18,North,0,0.0,5.4,24,0.00,,,0.00,WSDL version 420,2013-04-21 17:33:00,
2013-04-21 13:35:00,62.7,25.7,29.18,NNE,23,5.0,5.4,25,0.00,,,0.00,WSDL version 420,2013-04-21 17:35:00,
2013-04-21 13:37:00,62.5,25.8,29.18,NW,315,2.9,5.4,24,0.00,,,0.00,WSDL version 420,2013-04-21 17:37:00,
2013-04-21 13:41:00,63.2,26.0,29.18,NW,309,0.8,4.3,24,0.00,,,0.00,WSDL version 420,2013-04-21 17:41:00,
2013-04-21 13:43:00,63.6,26.3,29.15,NW,315,1.5,4.3,24,0.00,,,0.00,WSDL version 420,2013-04-21 17:43:00,
2013-04-21 13:45:00,63.9,26.5,29.15,NW,315,1.6,2.7,24,0.00,,,0.00,WSDL version 420,2013-04-21 17:45:00,
2013-04-21 13:47:00,64.2,27.0,29.15,North,360,2.2,2.9,25,0.00,,,0.00,WSDL version 420,2013-04-21 17:47:00,
2013-04-21 13:51:00,64.0,27.2,29.15,South,180,1.6,2.9,24,0.00,,,0.00,WSDL version 420,2013-04-21 17:51:00,
2013-04-21 13:55:00,64.6,27.1,29.15,NW,315,2.5,2.9,24,0.00,,,0.00,WSDL version 420,2013-04-21 17:55:00,
2013-04-21 13:57:00,65.1,27.5,29.15,NE,38,0.0,2.5,24,0.00,,,0.00,WSDL version 420,2013-04-21 17:57:00,
2013-04-21 14:01:00,66.3,28.5,29.15,SE,135,0.0,3.4,24,0.00,,,0.00,WSDL version 420,2013-04-21 18:01:00,
2013-04-21 14:03:00,66.7,28.8,29.15,NNE,23,2.9,3.4,24,0.00,,,0.00,WSDL version 420,2013-04-21 18:03:00,
2013-04-21 14:07:00,66.8,28.7,29.15,NNW,338,3.5,4.3,23,0.00,,,0.00,WSDL version 420,2013-04-21 18:07:00,
2013-04-21 14:11:00,66.1,27.8,29.15,NNE,23,2.8,4.3,24,0.00,,,0.00,WSDL version 420,2013-04-21 18:11:00,
2013-04-21 14:13:00,66.2,27.9,29.18,North,360,0.0,4.3,23,0.00,,,0.00,WSDL version 420,2013-04-21 18:13:00,
2013-04-21 14:15:00,66.3,28.0,29.18,NNW,338,2.7,4.3,24,0.00,,,0.00,WSDL version 420,2013-04-21 18:15:00,
2013-04-21 14:19:00,66.1,27.8,29.18,North,0,0.0,3.6,23,0.00,,,0.00,WSDL version 420,2013-04-21 18:19:00,
2013-04-21 14:21:00,66.0,27.5,29.18,NW,315,1.9,3.6,23,0.00,,,0.00,WSDL version 420,2013-04-21 18:21:00,
2013-04-21 14:25:00,66.2,27.4,29.18,WNW,293,1.6,3.6,23,0.00,,,0.00,WSDL version 420,2013-04-21 18:25:00,
2013-04-21 14:27:00,66.5,27.6,29.18,North,360,1.3,3.6,23,0.00,,,0.00,WSDL version 420,2013-04-21 18:27:00,
2013-04-21 14:29:00,66.8,27.8,29.18,WNW,293,0.8,3.6,23,0.00,,,0.00,WSDL version 420,2013-04-21 18:29:00,
2013-04-21 14:31:00,67.4,28.3,29.18,NW,315,0.6,3.6,23,0.00,,,0.00,WSDL version 420,2013-04-21 18:31:00,
2013-04-21 14:33:00,67.5,28.4,29.18,North,353,1.1,3.6,23,0.00,,,0.00,WSDL version 420,2013-04-21 18:33:00,
2013-04-21 14:35:00,67.4,28.4,29.18,WNW,285,2.8,3.6,23,0.00,,,0.00,WSDL version 420,2013-04-21 18:35:00,
2013-04-21 14:39:00,67.3,28.3,29.18,NE,53,0.0,3.6,23,0.00,,,0.00,WSDL version 420,2013-04-21 18:39:00,
2013-04-21 14:41:00,67.6,28.6,29.18,West,259,0.6,3.6,23,0.00,,,0.00,WSDL version 420,2013-04-21 18:41:00,
2013-04-21 14:45:00,68.2,29.0,29.15,NW,304,1.1,3.1,23,0.00,,,0.00,WSDL version 420,2013-04-21 18:45:00,
2013-04-21 14:47:00,68.4,29.2,29.15,North,0,0.0,3.1,23,0.00,,,0.00,WSDL version 420,2013-04-21 18:47:00,
2013-04-21 14:49:00,68.4,29.2,29.15,North,-999,-999.0,-999.0,23,0.00,,,0.00,WSDL version 420,2013-04-21 18:49:00,
2013-04-21 14:53:00,68.1,29.0,29.15,WSW,248,2.0,4.3,23,0.00,,,0.00,WSDL version 420,2013-04-21 18:53:00,
2013-04-21 14:55:00,67.9,28.8,29.15,NW,315,1.6,4.3,23,0.00,,,0.00,WSDL version 420,2013-04-21 18:55:00,
2013-04-21 14:57:00,67.9,28.8,29.18,NW,315,2.0,4.3,23,0.00,,,0.00,WSDL version 420,2013-04-21 18:57:00,
2013-04-21 14:59:00,67.9,28.8,29.18,North,-999,-999.0,-999.0,23,0.00,,,0.00,WSDL version 420,2013-04-21 18:59:00,
2013-04-21 15:03:00,68.0,28.8,29.18,West,281,2.1,4.0,23,0.00,,,0.00,WSDL version 420,2013-04-21 19:03:00,
2013-04-21 15:05:00,68.0,28.9,29.18,SSW,203,1.6,4.0,23,0.00,,,0.00,WSDL version 420,2013-04-21 19:05:00,
2013-04-21 15:07:00,68.2,29.0,29.18,NE,38,0.4,3.8,23,0.00,,,0.00,WSDL version 420,2013-04-21 19:07:00,
2013-04-21 15:09:00,68.5,29.2,29.18,North,360,0.0,3.8,23,0.00,,,0.00,WSDL version 420,2013-04-21 19:09:00,
2013-04-21 15:11:00,68.7,29.5,29.18,SSW,210,1.3,2.7,23,0.00,,,0.00,WSDL version 420,2013-04-21 19:11:00,
2013-04-21 15:13:00,68.9,29.6,29.18,NW,315,0.0,2.7,23,0.00,,,0.00,WSDL version 420,2013-04-21 19:13:00,
2013-04-21 15:17:00,69.4,30.1,29.18,North,-999,-999.0,-999.0,23,0.00,,,0.00,WSDL version 420,2013-04-21 19:17:00,
2013-04-21 15:19:00,69.2,29.9,29.18,North,-999,-999.0,-999.0,23,0.00,,,0.00,WSDL version 420,2013-04-21 19:19:00,
2013-04-21 15:23:00,68.9,29.6,29.18,North,-999,-999.0,-999.0,23,0.00,,,0.00,WSDL version 420,2013-04-21 19:23:00,
2013-04-21 15:27:00,68.8,29.6,29.18,North,-999,-999.0,-999.0,23,0.00,,,0.00,WSDL version 420,2013-04-21 19:27:00,
2013-04-21 15:29:00,68.8,29.6,29.18,NW,315,2.2,2.2,23,0.00,,,0.00,WSDL version 420,2013-04-21 19:29:00,
2013-04-21 15:33:00,68.5,29.2,29.18,WNW,293,1.3,3.8,23,0.00,,,0.00,WSDL version 420,2013-04-21 19:33:00,
2013-04-21 15:35:00,68.3,29.1,29.18,WNW,293,0.8,3.8,23,0.00,,,0.00,WSDL version 420,2013-04-21 19:35:00,
2013-04-21 15:39:00,68.5,29.3,29.18,NE,45,1.1,3.8,23,0.00,,,0.00,WSDL version 420,2013-04-21 19:39:00,
2013-04-21 15:41:00,68.7,29.4,29.18,ESE,113,2.5,3.1,23,0.00,,,0.00,WSDL version 420,2013-04-21 19:41:00,
2013-04-21 15:45:00,68.7,29.2,29.18,NNE,15,1.9,3.1,23,0.00,,,0.00,WSDL version 420,2013-04-21 19:45:00,
2013-04-21 15:47:00,68.5,28.6,29.18,NE,56,1.8,4.0,22,0.00,,,0.00,WSDL version 420,2013-04-21 19:47:00,
2013-04-21 15:49:00,68.3,28.2,29.18,NNE,23,1.8,4.0,22,0.00,,,0.00,WSDL version 420,2013-04-21 19:49:00,
2013-04-21 15:51:00,68.1,27.9,29.18,North,0,0.0,4.0,22,0.00,,,0.00,WSDL version 420,2013-04-21 19:51:00,
2013-04-21 15:53:00,68.0,28.0,29.18,North,11,2.7,4.0,23,0.00,,,0.00,WSDL version 420,2013-04-21 19:53:00,
2013-04-21 15:57:00,67.4,28.3,29.18,North,0,0.0,4.0,23,0.00,,,0.00,WSDL version 420,2013-04-21 19:57:00,
2013-04-21 15:59:00,67.2,28.2,29.18,North,-999,-999.0,-999.0,23,0.00,,,0.00,WSDL version 420,2013-04-21 19:59:00,
2013-04-21 16:01:00,66.7,27.8,29.18,North,349,3.0,4.0,23,0.00,,,0.00,WSDL version 420,2013-04-21 20:01:00,
2013-04-21 16:05:00,66.3,27.4,29.18,North,360,2.2,3.4,23,0.00,,,0.00,WSDL version 420,2013-04-21 20:05:00,
2013-04-21 16:09:00,65.9,27.1,29.18,North,-999,-999.0,-999.0,23,0.00,,,0.00,WSDL version 420,2013-04-21 20:09:00,
2013-04-21 16:11:00,65.8,27.0,29.18,NNE,23,2.0,3.4,23,0.00,,,0.00,WSDL version 420,2013-04-21 20:11:00,
2013-04-21 16:13:00,65.5,26.8,29.15,NW,304,2.0,3.1,23,0.00,,,0.00,WSDL version 420,2013-04-21 20:13:00,
2013-04-21 16:15:00,65.4,26.6,29.15,SE,135,2.2,2.5,23,0.00,,,0.00,WSDL version 420,2013-04-21 20:15:00,
2013-04-21 16:17:00,65.2,26.5,29.15,North,0,0.0,2.5,23,0.00,,,0.00,WSDL version 420,2013-04-21 20:17:00,
2013-04-21 16:19:00,65.1,26.4,29.15,North,349,3.1,3.1,23,0.00,,,0.00,WSDL version 420,2013-04-21 20:19:00,
2013-04-21 16:21:00,64.9,26.3,29.15,WNW,293,2.2,2.9,23,0.00,,,0.00,WSDL version 420,2013-04-21 20:21:00,
2013-04-21 16:23:00,64.7,26.1,29.15,North,5,2.3,3.4,23,0.00,,,0.00,WSDL version 420,2013-04-21 20:23:00,
2013-04-21 16:25:00,64.5,25.9,29.15,NW,315,2.5,3.4,23,0.00,,,0.00,WSDL version 420,2013-04-21 20:25:00,
2013-04-21 16:31:00,64.2,26.7,29.15,North,360,4.0,4.0,24,0.00,,,0.00,WSDL version 420,2013-04-21 20:31:00,
2013-04-21 16:33:00,64.0,26.5,29.15,North,360,2.7,3.4,24,0.00,,,0.00,WSDL version 420,2013-04-21 20:33:00,
2013-04-21 16:35:00,63.9,26.4,29.15,North,349,3.1,3.6,24,0.00,,,0.00,WSDL version 420,2013-04-21 20:35:00,
2013-04-21 16:37:00,63.8,26.3,29.15,WNW,300,1.9,3.6,24,0.00,,,0.00,WSDL version 420,2013-04-21 20:37:00,
2013-04-21 16:39:00,63.8,26.3,29.15,North,360,1.1,3.6,24,0.00,,,0.00,WSDL version 420,2013-04-21 20:39:00,
2013-04-21 16:41:00,63.6,26.2,29.15,NNW,338,2.7,3.6,24,0.00,,,0.00,WSDL version 420,2013-04-21 20:41:00,
2013-04-21 16:43:00,63.6,26.1,29.15,WNW,285,0.9,3.6,24,0.00,,,0.00,WSDL version 420,2013-04-21 20:43:00,
2013-04-21 16:47:00,63.5,26.1,29.15,South,180,1.1,3.1,24,0.00,,,0.00,WSDL version 420,2013-04-21 20:47:00,
2013-04-21 16:49:00,63.6,26.1,29.15,South,180,0.3,3.1,24,0.00,,,0.00,WSDL version 420,2013-04-21 20:49:00,
2013-04-21 16:53:00,63.5,26.1,29.15,North,0,0.0,2.0,24,0.00,,,0.00,WSDL version 420,2013-04-21 20:53:00,
2013-04-21 16:55:00,63.5,26.1,29.15,WSW,248,1.1,2.2,24,0.00,,,0.00,WSDL version 420,2013-04-21 20:55:00,
2013-04-21 17:01:00,63.3,25.9,29.12,NW,315,2.5,2.5,24,0.00,,,0.00,WSDL version 420,2013-04-21 21:01:00,
2013-04-21 17:03:00,63.2,25.8,29.12,North,360,3.1,3.6,24,0.00,,,0.00,WSDL version 420,2013-04-21 21:03:00,
2013-04-21 17:07:00,63.0,25.7,29.12,SW,233,1.3,3.6,24,0.00,,,0.00,WSDL version 420,2013-04-21 21:07:00,
2013-04-21 17:09:00,63.0,25.6,29.12,WNW,293,2.0,3.6,24,0.00,,,0.00,WSDL version 420,2013-04-21 21:09:00,
2013-04-21 17:11:00,63.0,25.6,29.12,WSW,248,1.3,3.6,24,0.00,,,0.00,WSDL version 420,2013-04-21 21:11:00,
2013-04-21 17:15:00,63.0,25.6,29.12,West,270,0.0,3.6,24,0.00,,,0.00,WSDL version 420,2013-04-21 21:15:00,
2013-04-21 17:17:00,63.0,25.6,29.12,NW,304,0.8,3.6,24,0.00,,,0.00,WSDL version 420,2013-04-21 21:17:00,
2013-04-21 17:19:00,63.0,25.7,29.12,North,360,0.0,4.9,24,0.00,,,0.00,WSDL version 420,2013-04-21 21:19:00,
2013-04-21 17:25:00,62.9,25.5,29.12,North,0,0.0,4.9,24,0.00,,,0.00,WSDL version 420,2013-04-21 21:25:00,
2013-04-21 17:27:00,62.7,25.4,29.15,NW,315,1.1,4.9,24,0.00,,,0.00,WSDL version 420,2013-04-21 21:27:00,
2013-04-21 17:33:00,62.6,25.3,29.15,South,191,1.3,2.7,24,0.00,,,0.00,WSDL version 420,2013-04-21 21:33:00,
2013-04-21 17:37:00,62.7,25.4,29.15,SSW,203,2.0,2.7,24,0.00,,,0.00,WSDL version 420,2013-04-21 21:37:00,
2013-04-21 17:39:00,62.7,25.4,29.15,West,270,2.2,2.7,24,0.00,,,0.00,WSDL version 420,2013-04-21 21:39:00,
2013-04-21 17:43:00,62.5,25.6,29.15,North,360,0.0,2.5,24,0.00,,,0.00,WSDL version 420,2013-04-21 21:43:00,
2013-04-21 17:45:00,62.5,25.9,29.15,North,0,0.0,2.5,25,0.00,,,0.00,WSDL version 420,2013-04-21 21:45:00,
2013-04-21 17:47:00,62.4,26.0,29.15,North,353,2.3,2.5,25,0.00,,,0.00,WSDL version 420,2013-04-21 21:47:00,
2013-04-21 17:49:00,62.3,26.0,29.15,SW,225,2.5,3.1,25,0.00,,,0.00,WSDL version 420,2013-04-21 21:49:00,
2013-04-21 17:53:00,62.1,25.9,29.15,West,263,1.0,3.1,25,0.00,,,0.00,WSDL version 420,2013-04-21 21:53:00,
2013-04-21 17:55:00,62.1,25.9,29.15,North,349,0.4,3.1,25,0.00,,,0.00,WSDL version 420,2013-04-21 21:55:00,
2013-04-21 17:59:00,61.9,25.7,29.15,NW,321,2.6,4.0,25,0.00,,,0.00,WSDL version 420,2013-04-21 21:59:00,
2013-04-21 18:03:00,61.7,25.5,29.15,WNW,300,0.4,4.0,25,0.00,,,0.00,WSDL version 420,2013-04-21 22:03:00,
2013-04-21 18:05:00,61.7,25.5,29.15,SSW,210,0.3,4.0,25,0.00,,,0.00,WSDL version 420,2013-04-21 22:05:00,
2013-04-21 18:09:00,61.7,25.5,29.15,West,278,2.6,3.4,25,0.00,,,0.00,WSDL version 420,2013-04-21 22:09:00,
2013-04-21 18:11:00,61.6,25.5,29.15,North,360,1.1,3.4,25,0.00,,,0.00,WSDL version 420,2013-04-21 22:11:00,
2013-04-21 18:13:00,61.5,25.3,29.15,West,266,0.8,3.4,25,0.00,,,0.00,WSDL version 420,2013-04-21 22:13:00,
2013-04-21 18:17:00,61.3,25.2,29.15,North,0,0.0,3.4,25,0.00,,,0.00,WSDL version 420,2013-04-21 22:17:00,
2013-04-21 18:21:00,61.2,25.1,29.15,North,349,1.6,2.5,25,0.00,,,0.00,WSDL version 420,2013-04-21 22:21:00,
2013-04-21 18:25:00,61.1,25.0,29.15,North,360,1.3,3.4,25,0.00,,,0.00,WSDL version 420,2013-04-21 22:25:00,
2013-04-21 18:27:00,61.0,25.0,29.15,NW,315,0.6,3.4,25,0.00,,,0.00,WSDL version 420,2013-04-21 22:27:00,
2013-04-21 18:29:00,61.0,24.9,29.15,NW,319,0.0,3.4,25,0.00,,,0.00,WSDL version 420,2013-04-21 22:29:00,
2013-04-21 18:31:00,60.9,24.9,29.15,North,360,1.3,3.4,25,0.00,,,0.00,WSDL version 420,2013-04-21 22:31:00,
2013-04-21 18:33:00,60.8,24.8,29.15,NNW,338,1.9,2.7,25,0.00,,,0.00,WSDL version 420,2013-04-21 22:33:00,
2013-04-21 18:39:00,60.8,24.8,29.15,NW,315,1.2,2.7,25,0.00,,,0.00,WSDL version 420,2013-04-21 22:39:00,
2013-04-21 18:43:00,60.6,24.6,29.12,North,360,2.0,2.5,25,0.00,,,0.00,WSDL version 420,2013-04-21 22:43:00,
2013-04-21 18:45:00,60.6,24.6,29.12,North,360,1.7,2.7,25,0.00,,,0.00,WSDL version 420,2013-04-21 22:45:00,
2013-04-21 18:47:00,60.5,24.5,29.12,North,360,2.1,2.7,25,0.00,,,0.00,WSDL version 420,2013-04-21 22:47:00,
2013-04-21 18:51:00,60.4,24.5,29.12,NW,305,0.3,2.7,25,0.00,,,0.00,WSDL version 420,2013-04-21 22:51:00,
2013-04-21 18:55:00,60.4,24.4,29.12,NNW,345,1.6,2.7,25,0.00,,,0.00,WSDL version 420,2013-04-21 22:55:00,
2013-04-21 18:57:00,60.3,24.7,29.12,NW,326,2.1,2.7,26,0.00,,,0.00,WSDL version 420,2013-04-21 22:57:00,
2013-04-21 18:59:00,60.2,25.0,29.12,SE,143,1.1,2.7,26,0.00,,,0.00,WSDL version 420,2013-04-21 22:59:00,
2013-04-21 19:01:00,60.1,25.1,29.12,NNW,338,0.4,2.7,26,0.00,,,0.00,WSDL version 420,2013-04-21 23:01:00,
2013-04-21 19:03:00,60.1,25.1,29.12,NW,305,0.0,2.7,26,0.00,,,0.00,WSDL version 420,2013-04-21 23:03:00,
2013-04-21 19:05:00,60.1,25.1,29.12,SW,225,0.0,2.7,26,0.00,,,0.00,WSDL version 420,2013-04-21 23:05:00,
2013-04-21 19:07:00,60.1,25.1,29.12,SE,135,1.0,2.2,26,0.00,,,0.00,WSDL version 420,2013-04-21 23:07:00,
2013-04-21 19:13:00,59.8,24.9,29.12,WNW,293,2.0,2.9,26,0.00,,,0.00,WSDL version 420,2013-04-21 23:13:00,
2013-04-21 19:15:00,59.8,24.8,29.12,WNW,293,1.6,2.9,26,0.00,,,0.00,WSDL version 420,2013-04-21 23:15:00,
2013-04-21 19:17:00,59.7,24.8,29.12,NNE,30,0.5,2.9,26,0.00,,,0.00,WSDL version 420,2013-04-21 23:17:00,
2013-04-21 19:23:00,59.5,25.4,29.12,West,263,0.1,1.6,27,0.00,,,0.00,WSDL version 420,2013-04-21 23:23:00,
2013-04-21 19:25:00,59.4,25.4,29.12,WSW,252,0.2,1.6,27,0.00,,,0.00,WSDL version 420,2013-04-21 23:25:00,
2013-04-21 19:29:00,59.3,25.4,29.12,NW,315,0.5,2.0,27,0.00,,,0.00,WSDL version 420,2013-04-21 23:29:00,
2013-04-21 19:33:00,59.2,25.2,29.12,WNW,293,0.0,2.0,27,0.00,,,0.00,WSDL version 420,2013-04-21 23:33:00,
2013-04-21 19:37:00,59.1,25.9,29.12,WNW,293,0.0,2.0,28,0.00,,,0.00,WSDL version 420,2013-04-21 23:37:00,
2013-04-21 19:39:00,59.0,26.0,29.12,WNW,293,0.0,0.0,28,0.00,,,0.00,WSDL version 420,2013-04-21 23:39:00,
2013-04-21 19:41:00,58.9,25.9,29.12,WNW,293,0.0,0.0,28,0.00,,,0.00,WSDL version 420,2013-04-21 23:41:00,
2013-04-21 19:43:00,58.8,26.1,29.12,WNW,293,0.0,0.0,29,0.00,,,0.00,WSDL version 420,2013-04-21 23:43:00,
2013-04-21 19:47:00,58.8,26.6,29.12,WNW,293,0.0,0.0,29,0.00,,,0.00,WSDL version 420,2013-04-21 23:47:00,
2013-04-21 19:49:00,58.6,26.5,29.12,WNW,293,0.0,0.0,29,0.00,,,0.00,WSDL version 420,2013-04-21 23:49:00,
2013-04-21 19:53:00,58.4,26.4,29.12,WNW,293,0.0,0.0,30,0.00,,,0.00,WSDL version 420,2013-04-21 23:53:00,
2013-04-21 19:55:00,58.3,26.6,29.12,SSW,203,0.0,0.0,30,0.00,,,0.00,WSDL version 420,2013-04-21 23:55:00,
2013-04-21 20:01:00,58.1,28.0,29.15,SSW,203,0.0,0.0,32,0.00,,,0.00,WSDL version 420,2013-04-22 00:01:00,
2013-04-21 20:03:00,58.1,28.5,29.15,SSW,203,0.0,0.0,33,0.00,,,0.00,WSDL version 420,2013-04-22 00:03:00,
2013-04-21 20:05:00,58.0,28.8,29.15,SSW,203,0.0,0.0,33,0.00,,,0.00,WSDL version 420,2013-04-22 00:05:00,
2013-04-21 20:09:00,57.8,29.5,29.15,SSW,203,0.0,0.0,34,0.00,,,0.00,WSDL version 420,2013-04-22 00:09:00,
2013-04-21 20:11:00,57.6,29.5,29.15,SSW,203,0.0,0.0,34,0.00,,,0.00,WSDL version 420,2013-04-22 00:11:00,
2013-04-21 20:17:00,57.3,29.9,29.15,SSW,203,0.0,0.0,35,0.00,,,0.00,WSDL version 420,2013-04-22 00:17:00,
2013-04-21 20:19:00,57.1,29.8,29.15,SSW,203,0.0,0.0,35,0.00,,,0.00,WSDL version 420,2013-04-22 00:19:00,
2013-04-21 20:23:00,56.9,29.6,29.15,SSW,203,0.0,0.0,35,0.00,,,0.00,WSDL version 420,2013-04-22 00:23:00,
2013-04-21 20:25:00,56.8,29.5,29.15,SSW,203,0.0,0.0,35,0.00,,,0.00,WSDL version 420,2013-04-22 00:25:00,
2013-04-21 20:27:00,56.7,29.4,29.15,SSW,203,0.0,0.0,35,0.00,,,0.00,WSDL version 420,2013-04-22 00:27:00,
2013-04-21 20:31:00,56.4,29.6,29.15,SSW,203,0.0,0.0,36,0.00,,,0.00,WSDL version 420,2013-04-22 00:31:00,
2013-04-21 20:33:00,56.3,29.7,29.15,SSW,203,0.0,0.0,36,0.00,,,0.00,WSDL version 420,2013-04-22 00:33:00,
2013-04-21 20:37:00,56.2,29.7,29.15,SSW,203,0.0,0.0,36,0.00,,,0.00,WSDL version 420,2013-04-22 00:37:00,
2013-04-21 20:39:00,56.2,29.6,29.15,SSW,203,0.0,0.0,36,0.00,,,0.00,WSDL version 420,2013-04-22 00:39:00,
2013-04-21 20:43:00,56.1,29.5,29.15,SSW,203,0.0,0.0,36,0.00,,,0.00,WSDL version 420,2013-04-22 00:43:00,
2013-04-21 20:45:00,56.0,29.8,29.15,SSW,203,0.0,0.0,37,0.00,,,0.00,WSDL version 420,2013-04-22 00:45:00,
2013-04-21 20:49:00,55.9,30.0,29.15,SSW,203,0.0,0.0,37,0.00,,,0.00,WSDL version 420,2013-04-22 00:49:00,
2013-04-21 20:51:00,55.8,30.0,29.15,SSW,203,0.0,0.0,37,0.00,,,0.00,WSDL version 420,2013-04-22 00:51:00,
2013-04-21 20:53:00,55.8,29.9,29.15,SSW,203,0.0,0.0,37,0.00,,,0.00,WSDL version 420,2013-04-22 00:53:00,
2013-04-21 20:55:00,55.8,30.0,29.15,SSW,203,0.0,0.0,37,0.00,,,0.00,WSDL version 420,2013-04-22 00:55:00,
2013-04-21 20:57:00,55.7,30.1,29.15,SSW,203,0.0,0.0,37,0.00,,,0.00,WSDL version 420,2013-04-22 00:57:00,
2013-04-21 21:01:00,55.5,30.2,29.15,SSW,203,0.0,0.0,38,0.00,,,0.00,WSDL version 420,2013-04-22 01:01:00,
2013-04-21 21:03:00,55.5,30.3,29.15,SSW,203,0.0,0.0,38,0.00,,,0.00,WSDL version 420,2013-04-22 01:03:00,
2013-04-21 21:05:00,55.4,30.3,29.15,SSW,203,0.0,0.0,39,0.00,,,0.00,WSDL version 420,2013-04-22 01:05:00,
2013-04-21 21:07:00,55.3,30.6,29.15,SSW,203,0.0,0.0,39,0.00,,,0.00,WSDL version 420,2013-04-22 01:07:00,
2013-04-21 21:09:00,55.2,30.7,29.15,SSW,203,0.0,0.0,39,0.00,,,0.00,WSDL version 420,2013-04-22 01:09:00,
2013-04-21 21:11:00,55.2,30.7,29.15,SSW,203,0.0,0.0,39,0.00,,,0.00,WSDL version 420,2013-04-22 01:11:00,
2013-04-21 21:13:00,55.2,30.8,29.15,South,180,0.0,0.0,40,0.00,,,0.00,WSDL version 420,2013-04-22 01:13:00,
2013-04-21 21:17:00,55.1,31.1,29.15,South,180,0.0,0.0,40,0.00,,,0.00,WSDL version 420,2013-04-22 01:17:00,
2013-04-21 21:19:00,55.0,31.2,29.15,South,180,0.0,0.0,40,0.00,,,0.00,WSDL version 420,2013-04-22 01:19:00,
2013-04-21 21:21:00,55.0,31.2,29.15,South,180,0.0,0.0,40,0.00,,,0.00,WSDL version 420,2013-04-22 01:21:00,
2013-04-21 21:23:00,55.0,31.2,29.15,South,180,0.0,0.0,40,0.00,,,0.00,WSDL version 420,2013-04-22 01:23:00,
2013-04-21 21:27:00,55.0,31.4,29.15,South,180,0.0,0.0,41,0.00,,,0.00,WSDL version 420,2013-04-22 01:27:00,
2013-04-21 21:33:00,54.9,31.5,29.15,South,180,0.8,2.0,41,0.00,,,0.00,WSDL version 420,2013-04-22 01:33:00,
2013-04-21 21:35:00,54.9,31.6,29.15,South,180,1.4,2.0,41,0.00,,,0.00,WSDL version 420,2013-04-22 01:35:00,
2013-04-21 21:37:00,54.9,31.7,29.15,South,180,1.3,2.0,42,0.00,,,0.00,WSDL version 420,2013-04-22 01:37:00,
2013-04-21 21:39:00,54.8,31.9,29.15,South,180,0.9,2.0,42,0.00,,,0.00,WSDL version 420,2013-04-22 01:39:00,
2013-04-21 21:43:00,54.7,32.1,29.15,South,180,0.0,2.0,42,0.00,,,0.00,WSDL version 420,2013-04-22 01:43:00,
2013-04-21 21:45:00,54.7,32.2,29.15,South,180,0.0,1.6,43,0.00,,,0.00,WSDL version 420,2013-04-22 01:45:00,
2013-04-21 21:49:00,54.7,32.5,29.15,South,180,0.0,0.0,43,0.00,,,0.00,WSDL version 420,2013-04-22 01:49:00,
2013-04-21 21:53:00,54.6,32.7,29.15,South,180,1.1,2.0,44,0.00,,,0.00,WSDL version 420,2013-04-22 01:53:00,
2013-04-21 21:55:00,54.5,32.8,29.15,South,180,1.7,2.0,44,0.00,,,0.00,WSDL version 420,2013-04-22 01:55:00,
2013-04-21 21:59:00,54.4,33.2,29.18,South,180,1.5,2.0,45,0.00,,,0.00,WSDL version 420,2013-04-22 01:59:00,
2013-04-21 22:01:00,54.4,33.2,29.18,South,180,1.9,2.0,45,0.00,,,0.00,WSDL version 420,2013-04-22 02:01:00,
2013-04-21 22:03:00,54.3,33.4,29.18,South,180,1.7,2.0,45,0.00,,,0.00,WSDL version 420,2013-04-22 02:03:00,
2013-04-21 22:05:00,54.3,33.4,29.18,South,180,2.0,2.0,45,0.00,,,0.00,WSDL version 420,2013-04-22 02:05:00,
2013-04-21 22:07:00,54.3,33.6,29.18,SSW,195,1.0,2.2,46,0.00,,,0.00,WSDL version 420,2013-04-22 02:07:00,
2013-04-21 22:09:00,54.2,33.6,29.18,South,180,0.0,2.2,46,0.00,,,0.00,WSDL version 420,2013-04-22 02:09:00,
2013-04-21 22:11:00,54.1,33.7,29.18,South,180,0.0,2.2,46,0.00,,,0.00,WSDL version 420,2013-04-22 02:11:00,
2013-04-21 22:15:00,54.1,33.8,29.15,South,180,0.0,2.2,46,0.00,,,0.00,WSDL version 420,2013-04-22 02:15:00,
2013-04-21 22:17:00,54.1,33.8,29.15,South,180,0.0,0.0,46,0.00,,,0.00,WSDL version 420,2013-04-22 02:17:00,
2013-04-21 22:21:00,54.1,33.8,29.15,SSW,203,0.3,2.5,46,0.00,,,0.00,WSDL version 420,2013-04-22 02:21:00,
2013-04-21 22:23:00,54.0,33.7,29.15,South,191,0.0,2.9,46,0.00,,,0.00,WSDL version 420,2013-04-22 02:23:00,
2013-04-21 22:25:00,54.0,33.8,29.15,South,188,1.0,2.9,47,0.00,,,0.00,WSDL version 420,2013-04-22 02:25:00,
2013-04-21 22:27:00,54.0,34.1,29.18,SSW,203,0.0,2.9,47,0.00,,,0.00,WSDL version 420,2013-04-22 02:27:00,
2013-04-21 22:29:00,54.0,34.2,29.18,South,180,1.4,2.9,47,0.00,,,0.00,WSDL version 420,2013-04-22 02:29:00,
2013-04-21 22:31:00,54.0,34.2,29.18,South,180,1.5,2.9,47,0.00,,,0.00,WSDL version 420,2013-04-22 02:31:00,
2013-04-21 22:33:00,54.0,34.2,29.18,North,0,0.0,2.5,47,0.00,,,0.00,WSDL version 420,2013-04-22 02:33:00,
2013-04-21 22:35:00,54.0,34.2,29.18,South,180,0.7,2.5,47,0.00,,,0.00,WSDL version 420,2013-04-22 02:35:00,
2013-04-21 22:39:00,53.9,34.1,29.18,South,188,1.3,2.5,47,0.00,,,0.00,WSDL version 420,2013-04-22 02:39:00,
2013-04-21 22:41:00,53.8,34.1,29.18,South,180,1.0,2.0,47,0.00,,,0.00,WSDL version 420,2013-04-22 02:41:00,
2013-04-21 22:45:00,53.8,34.0,29.15,South,180,0.0,2.0,47,0.00,,,0.00,WSDL version 420,2013-04-22 02:45:00,
2013-04-21 22:49:00,53.8,34.3,29.15,South,180,0.0,1.3,48,0.00,,,0.00,WSDL version 420,2013-04-22 02:49:00,
2013-04-21 22:51:00,53.8,34.6,29.15,South,180,0.0,0.0,48,0.00,,,0.00,WSDL version 420,2013-04-22 02:51:00,
2013-04-21 22:55:00,53.8,34.7,29.15,South,180,0.4,0.0,49,0.00,,,0.00,WSDL version 420,2013-04-22 02:55:00,
2013-04-21 22:57:00,53.8,34.9,29.18,SSW,203,0.0,2.2,49,0.00,,,0.00,WSDL version 420,2013-04-22 02:57:00,
2013-04-21 23:01:00,53.8,35.1,29.18,South,191,1.3,2.5,49,0.00,,,0.00,WSDL version 420,2013-04-22 03:01:00,
2013-04-21 23:05:00,53.6,35.0,29.18,SSW,203,0.0,2.5,49,0.00,,,0.00,WSDL version 420,2013-04-22 03:05:00,
2013-04-21 23:07:00,53.6,34.9,29.18,SSW,203,0.0,2.5,49,0.00,,,0.00,WSDL version 420,2013-04-22 03:07:00,
2013-04-21 23:11:00,53.6,35.1,29.18,South,180,0.0,0.0,50,0.00,,,0.00,WSDL version 420,2013-04-22 03:11:00,
2013-04-21 23:13:00,53.6,35.2,29.15,SSW,195,0.0,1.6,50,0.00,,,0.00,WSDL version 420,2013-04-22 03:13:00,
2013-04-21 23:15:00,53.5,35.1,29.15,SSW,203,0.0,1.6,49,0.00,,,0.00,WSDL version 420,2013-04-22 03:15:00,
2013-04-21 23:17:00,53.5,35.0,29.15,SSW,206,0.0,1.6,49,0.00,,,0.00,WSDL version 420,2013-04-22 03:17:00,
2013-04-21 23:19:00,53.4,34.8,29.15,SSE,163,0.0,1.6,49,0.00,,,0.00,WSDL version 420,2013-04-22 03:19:00,
2013-04-21 23:23:00,53.5,34.3,29.15,North,349,0.0,2.2,47,0.00,,,0.00,WSDL version 420,2013-04-22 03:23:00,
2013-04-21 23:25:00,53.6,34.2,29.15,South,180,0.0,2.2,48,0.00,,,0.00,WSDL version 420,2013-04-22 03:25:00,
2013-04-21 23:27:00,53.7,34.1,29.15,South,180,0.0,2.2,47,0.00,,,0.00,WSDL version 420,2013-04-22 03:27:00,
2013-04-21 23:31:00,53.8,34.1,29.15,NW,315,0.0,2.2,47,0.00,,,0.00,WSDL version 420,2013-04-22 03:31:00,
2013-04-21 23:33:00,53.8,34.0,29.15,SSW,203,0.0,0.0,47,0.00,,,0.00,WSDL version 420,2013-04-22 03:33:00,
2013-04-21 23:35:00,53.8,34.1,29.15,SSW,203,0.0,0.0,48,0.00,,,0.00,WSDL version 420,2013-04-22 03:35:00,
2013-04-21 23:37:00,53.8,34.3,29.15,North,356,0.0,0.0,47,0.00,,,0.00,WSDL version 420,2013-04-22 03:37:00,
2013-04-21 23:41:00,53.8,33.7,29.15,NW,309,0.0,2.5,46,0.00,,,0.00,WSDL version 420,2013-04-22 03:41:00,
2013-04-21 23:43:00,53.9,33.6,29.18,SW,236,0.0,2.5,46,0.00,,,0.00,WSDL version 420,2013-04-22 03:43:00,
2013-04-21 23:45:00,54.0,33.5,29.18,WNW,302,0.0,2.5,45,0.00,,,0.00,WSDL version 420,2013-04-22 03:45:00,
2013-04-21 23:47:00,54.1,33.3,29.18,NW,315,0.0,2.5,45,0.00,,,0.00,WSDL version 420,2013-04-22 03:47:00,
2013-04-21 23:51:00,54.1,32.9,29.18,NE,45,0.0,1.1,44,0.00,,,0.00,WSDL version 420,2013-04-22 03:51:00,
2013-04-21 23:53:00,54.2,32.8,29.18,WNW,285,0.0,0.0,44,0.00,,,0.00,WSDL version 420,2013-04-22 03:53:00,
2013-04-21 23:55:00,54.2,32.6,29.18,SSW,203,0.0,0.0,43,0.00,,,0.00,WSDL version 420,2013-04-22 03:55:00,
2013-04-21 23:57:00,54.3,32.6,29.15,NW,315,0.0,0.0,44,0.00,,,0.00,WSDL version 420,2013-04-22 03:57:00,
2013-04-21 23:59:00,54.3,32.4,29.15,North,349,0.7,2.0,43,0.00,,,0.00,WSDL version 420,2013-04-22 03:59:00,